createdAt,value
2022-09-29T00:00:39.976Z,99181.28
2022-09-29T00:03:13.306Z,99057.34
2022-09-29T00:05:58.541Z,99187.97
2022-09-29T00:08:33.907Z,99187.31
2022-09-29T00:11:10.698Z,98959.19
2022-09-29T00:13:39.603Z,99185.25
2022-09-29T00:16:12.988Z,99181.97
2022-09-29T00:18:42.353Z,99184.66
2022-09-29T00:21:15.798Z,99181.25
2022-09-29T00:23:44.786Z,99137.13
2022-09-29T00:26:18.142Z,98947.22
2022-09-29T00:28:52.787Z,99130.34
2022-09-29T00:31:27.034Z,99054.25
2022-09-29T00:33:56.009Z,99194.88
2022-09-29T00:36:30.254Z,98915.78
2022-09-29T00:39:00.192Z,99034.97
2022-09-29T00:41:34.769Z,99127.50
2022-09-29T00:44:07.436Z,99178.72
2022-09-29T00:46:46.304Z,99199.03
2022-09-29T00:49:23.175Z,99161.31
2022-09-29T00:52:02.232Z,99168.28
2022-09-29T00:54:37.817Z,99187.38
2022-09-29T00:57:11.877Z,99152.97
2022-09-29T00:59:56.245Z,99012.78
2022-09-29T01:02:27.543Z,99187.03
2022-09-29T01:04:57.184Z,99200.22
2022-09-29T01:07:44.044Z,99102.84
2022-09-29T01:10:21.226Z,99189.03
2022-09-29T01:12:52.740Z,99192.56
2022-09-29T01:15:27.235Z,99195.19
2022-09-29T01:17:58.068Z,99140.84
2022-09-29T01:20:28.308Z,99191.81
2022-09-29T01:23:45.027Z,99200.66
2022-09-29T01:27:08.495Z,99196.34
2022-09-29T01:30:21.426Z,99207.72
2022-09-29T01:33:25.125Z,99202.47
2022-09-29T01:36:07.304Z,99174.81
2022-09-29T01:38:57.578Z,99176.63
2022-09-29T01:41:38.566Z,99172.47
2022-09-29T01:44:18.397Z,99129.28
2022-09-29T01:46:53.300Z,99205.22
2022-09-29T01:49:32.027Z,99205.28
2022-09-29T01:52:09.482Z,99199.25
2022-09-29T01:54:49.951Z,99143.28
2022-09-29T01:57:29.992Z,98999.28
2022-09-29T02:00:08.872Z,99203.84
2022-09-29T02:02:51.781Z,99209.94
2022-09-29T02:05:28.815Z,99205.63
2022-09-29T02:08:08.300Z,99209.09
2022-09-29T02:10:46.409Z,99212.47
2022-09-29T02:13:27.189Z,99175.31
2022-09-29T02:16:00.555Z,99214.88
2022-09-29T02:18:40.013Z,99213.75
2022-09-29T02:24:05.608Z,99180.97
2022-09-29T02:26:36.236Z,99206.56
2022-09-29T02:29:07.679Z,99049.28
2022-09-29T02:31:42.343Z,99224.19
2022-09-29T02:34:20.352Z,99022.16
2022-09-29T02:37:01.678Z,99229.78
2022-09-29T02:39:47.219Z,99186.41
2022-09-29T02:42:31.030Z,99227.63
2022-09-29T02:45:30.692Z,99232.63
2022-09-29T02:48:20.148Z,99129.00
2022-09-29T02:51:03.242Z,99233.22
2022-09-29T02:54:03.283Z,99206.28
2022-09-29T02:56:47.126Z,99236.41
2022-09-29T02:59:27.581Z,99109.44
2022-09-29T03:02:00.830Z,99171.41
2022-09-29T03:04:31.917Z,98891.19
2022-09-29T03:07:02.057Z,99229.03
2022-09-29T03:09:36.353Z,99032.47
2022-09-29T03:12:07.890Z,99238.56
2022-09-29T03:14:45.391Z,99183.31
2022-09-29T03:17:14.038Z,99121.06
2022-09-29T03:19:43.840Z,99247.75
2022-09-29T03:22:14.523Z,99043.31
2022-09-29T03:24:47.075Z,99236.41
2022-09-29T03:27:15.815Z,99250.13
2022-09-29T03:29:46.298Z,99221.59
2022-09-29T03:32:14.962Z,99241.50
2022-09-29T03:34:54.953Z,99255.25
2022-09-29T03:37:34.288Z,99254.38
2022-09-29T03:40:06.356Z,99246.63
2022-09-29T03:42:35.181Z,99252.59
2022-09-29T03:45:03.933Z,99182.03
2022-09-29T03:47:36.952Z,99045.59
2022-09-29T03:50:08.970Z,99107.66
2022-09-29T03:52:38.117Z,99271.53
2022-09-29T03:55:11.136Z,99251.72
2022-09-29T03:57:39.820Z,99143.97
2022-09-29T04:00:10.309Z,99274.03
2022-09-29T04:02:45.951Z,99271.38
2022-09-29T04:05:14.739Z,99268.69
2022-09-29T04:07:43.439Z,99250.50
2022-09-29T04:10:13.526Z,99270.34
2022-09-29T04:12:42.282Z,99200.56
2022-09-29T04:15:11.963Z,99165.34
2022-09-29T04:17:40.575Z,99281.63
2022-09-29T04:20:10.319Z,99116.00
2022-09-29T04:22:42.228Z,99278.88
2022-09-29T04:25:12.698Z,99284.94
2022-09-29T04:27:41.442Z,99281.38
2022-09-29T04:30:13.902Z,99283.97
2022-09-29T04:32:47.221Z,99193.41
2022-09-29T04:35:18.210Z,99284.81
2022-09-29T04:37:46.860Z,99220.19
2022-09-29T04:40:17.746Z,99291.81
2022-09-29T04:42:48.388Z,99246.78
2022-09-29T04:45:17.307Z,99286.56
2022-09-29T04:47:45.856Z,99283.03
2022-09-29T04:50:16.847Z,99295.28
2022-09-29T04:52:47.905Z,99239.06
2022-09-29T04:55:18.459Z,99210.59
2022-09-29T04:57:49.201Z,99084.84
2022-09-29T05:00:18.357Z,99289.06
2022-09-29T05:02:49.958Z,99180.66
2022-09-29T05:05:19.300Z,99278.97
2022-09-29T05:07:49.608Z,99300.56
2022-09-29T05:10:22.685Z,99299.72
2022-09-29T05:12:52.194Z,99067.78
2022-09-29T05:15:25.985Z,99156.59
2022-09-29T05:18:04.038Z,99285.72
2022-09-29T05:20:41.525Z,99310.88
2022-09-29T05:23:11.727Z,99304.56
2022-09-29T05:25:41.794Z,99306.19
2022-09-29T05:28:10.859Z,99308.66
2022-09-29T05:30:40.402Z,99306.81
2022-09-29T05:33:09.216Z,99311.13
2022-09-29T05:35:37.934Z,99308.50
2022-09-29T05:38:08.476Z,99314.41
2022-09-29T05:40:40.622Z,99299.75
2022-09-29T05:43:10.700Z,99300.38
2022-09-29T05:45:42.624Z,99184.84
2022-09-29T05:48:13.343Z,99320.00
2022-09-29T05:50:43.364Z,99321.59
2022-09-29T05:53:12.703Z,99318.75
2022-09-29T05:55:44.360Z,99321.13
2022-09-29T05:58:14.391Z,99321.78
2022-09-29T06:00:46.706Z,99316.34
2022-09-29T06:03:22.844Z,99134.38
2022-09-29T06:06:01.657Z,99299.75
2022-09-29T06:08:32.746Z,99207.97
2022-09-29T06:11:06.761Z,99167.25
2022-09-29T06:13:41.133Z,99327.44
2022-09-29T06:16:12.503Z,99328.13
2022-09-29T06:18:41.844Z,99327.06
2022-09-29T06:21:18.485Z,99324.09
2022-09-29T06:23:50.104Z,99145.44
2022-09-29T06:26:24.432Z,99279.59
2022-09-29T06:28:55.278Z,99330.13
2022-09-29T06:31:26.658Z,99330.59
2022-09-29T06:33:58.566Z,99333.75
2022-09-29T06:36:50.091Z,99334.25
2022-09-29T06:39:19.263Z,99341.59
2022-09-29T06:41:53.554Z,99294.31
2022-09-29T06:44:49.155Z,99334.34
2022-09-29T06:47:17.942Z,99350.88
2022-09-29T06:49:59.107Z,99339.03
2022-09-29T06:52:35.025Z,99336.13
2022-09-29T06:55:03.587Z,99334.78
2022-09-29T06:57:32.258Z,99343.06
2022-09-29T07:02:31.677Z,99337.88
2022-09-29T07:05:00.340Z,99336.63
2022-09-29T07:07:28.977Z,99339.75
2022-09-29T07:09:58.039Z,99341.22
2022-09-29T07:12:26.795Z,99253.97
2022-09-29T07:14:55.445Z,99270.88
2022-09-29T07:17:25.592Z,99347.25
2022-09-29T07:19:54.870Z,99152.56
2022-09-29T07:22:23.684Z,99333.91
2022-09-29T07:24:53.727Z,99342.72
2022-09-29T07:27:24.290Z,99346.84
2022-09-29T07:30:03.011Z,99347.44
2022-09-29T07:32:33.730Z,99344.44
2022-09-29T07:35:02.386Z,99357.25
2022-09-29T07:37:31.310Z,99359.28
2022-09-29T07:40:00.765Z,99350.69
2022-09-29T07:42:30.384Z,99216.88
2022-09-29T07:44:58.991Z,99359.75
2022-09-29T07:47:27.609Z,99328.03
2022-09-29T07:49:57.647Z,99228.66
2022-09-29T07:52:26.277Z,99363.88
2022-09-29T07:54:54.926Z,99365.03
2022-09-29T07:57:24.404Z,99300.66
2022-09-29T07:59:54.779Z,99362.34
2022-09-29T08:02:23.607Z,99371.03
2022-09-29T08:04:55.898Z,99368.44
2022-09-29T08:07:29.320Z,99319.94
2022-09-29T08:10:08.568Z,99289.72
2022-09-29T08:12:44.223Z,99378.03
2022-09-29T08:15:13.242Z,99377.28
2022-09-29T08:17:41.904Z,99377.69
2022-09-29T08:20:13.311Z,99386.44
2022-09-29T08:22:43.281Z,99387.78
2022-09-29T08:25:11.875Z,99389.09
2022-09-29T08:27:51.549Z,99394.53
2022-09-29T08:30:22.048Z,99371.56
2022-09-29T08:32:53.704Z,99402.50
2022-09-29T08:35:22.318Z,99398.69
2022-09-29T08:37:57.715Z,99361.03
2022-09-29T08:42:49.032Z,99402.78
2022-09-29T08:45:29.222Z,99273.84
2022-09-29T08:48:20.975Z,99410.84
2022-09-29T08:50:59.443Z,99414.66
2022-09-29T08:53:33.866Z,99424.50
2022-09-29T08:56:06.290Z,99436.78
2022-09-29T08:58:39.620Z,99427.91
2022-09-29T09:01:24.143Z,99430.22
2022-09-29T09:04:34.324Z,99436.78
2022-09-29T09:07:12.833Z,99433.28
2022-09-29T09:09:52.016Z,99438.44
2022-09-29T09:12:41.858Z,99437.06
2022-09-29T09:15:33.933Z,99440.16
2022-09-29T09:18:22.614Z,99432.53
2022-09-29T09:20:54.520Z,99442.69
2022-09-29T09:23:26.732Z,99444.47
2022-09-29T09:25:59.541Z,99455.03
2022-09-29T09:28:34.046Z,99448.47
2022-09-29T09:31:12.044Z,99449.69
2022-09-29T09:33:57.556Z,99448.78
2022-09-29T09:36:34.730Z,99456.38
2022-09-29T09:39:07.866Z,99449.38
2022-09-29T09:41:40.691Z,99454.63
2022-09-29T09:44:17.581Z,99457.06
2022-09-29T09:46:51.422Z,99448.09
2022-09-29T09:49:25.698Z,99458.41
2022-09-29T09:51:59.611Z,99458.22
2022-09-29T09:54:37.028Z,99463.13
2022-09-29T09:57:35.893Z,99464.34
2022-09-29T10:00:13.210Z,99461.31
2022-09-29T10:02:47.412Z,99459.16
2022-09-29T10:05:18.288Z,99459.88
2022-09-29T10:07:48.802Z,99464.00
2022-09-29T10:10:20.653Z,99464.19
2022-09-29T10:13:00.059Z,99461.44
2022-09-29T10:15:34.987Z,99466.03
2022-09-29T10:18:12.737Z,99462.09
2022-09-29T10:20:42.891Z,99461.59
2022-09-29T10:23:29.908Z,99471.31
2022-09-29T10:26:13.184Z,99467.03
2022-09-29T10:28:49.463Z,99468.88
2022-09-29T10:31:25.188Z,99470.75
2022-09-29T10:33:59.127Z,99466.47
2022-09-29T10:36:32.127Z,99468.88
2022-09-29T10:39:03.289Z,99472.22
2022-09-29T10:41:52.309Z,99473.47
2022-09-29T10:44:23.019Z,99476.31
2022-09-29T10:46:55.567Z,99478.19
2022-09-29T10:49:28.158Z,99474.22
2022-09-29T10:52:01.618Z,99478.16
2022-09-29T10:54:33.374Z,99483.50
2022-09-29T10:57:13.383Z,99486.16
2022-09-29T10:59:49.601Z,99491.66
2022-09-29T11:02:25.240Z,99497.66
2022-09-29T11:04:57.725Z,99501.59
2022-09-29T11:07:26.980Z,99504.50
2022-09-29T11:09:58.128Z,99507.75
2022-09-29T11:12:37.098Z,99514.03
2022-09-29T11:15:25.484Z,99512.72
2022-09-29T11:17:55.476Z,99516.50
2022-09-29T11:20:35.375Z,99511.78
2022-09-29T11:23:22.942Z,99510.06
2022-09-29T11:26:14.348Z,99509.78
2022-09-29T11:29:12.057Z,99513.81
2022-09-29T11:31:51.831Z,99511.97
2022-09-29T11:34:55.818Z,99512.22
2022-09-29T11:37:39.695Z,99514.09
2022-09-29T11:40:17.198Z,99510.50
2022-09-29T11:43:01.746Z,99512.75
2022-09-29T11:45:45.465Z,99519.31
2022-09-29T11:48:40.183Z,99517.41
2022-09-29T11:51:21.775Z,99524.19
2022-09-29T11:54:20.047Z,99521.81
2022-09-29T11:56:56.598Z,99519.19
2022-09-29T11:59:52.308Z,99524.59
2022-09-29T12:02:50.888Z,99525.88
2022-09-29T12:05:26.624Z,99527.94
2022-09-29T12:08:10.637Z,99527.84
2022-09-29T12:10:53.421Z,99527.75
2022-09-29T12:13:29.908Z,99524.31
2022-09-29T12:16:04.189Z,99526.97
2022-09-29T12:18:39.853Z,99534.97
2022-09-29T12:21:15.512Z,99526.03
2022-09-29T12:23:48.129Z,99530.22
2022-09-29T12:26:22.368Z,99540.16
2022-09-29T12:28:55.984Z,99543.16
2022-09-29T12:31:29.725Z,99530.75
2022-09-29T12:34:02.417Z,99542.75
2022-09-29T12:36:45.730Z,99529.28
2022-09-29T12:39:29.373Z,99539.03
2022-09-29T12:42:15.517Z,99535.09
2022-09-29T12:44:50.786Z,99535.28
2022-09-29T12:47:26.384Z,99503.31
2022-09-29T12:50:04.539Z,99538.44
2022-09-29T12:52:41.700Z,99538.44
2022-09-29T12:55:20.710Z,99534.97
2022-09-29T12:57:55.210Z,99527.16
2022-09-29T13:00:25.651Z,99538.97
2022-09-29T13:03:27.513Z,99538.81
2022-09-29T13:06:13.887Z,99539.19
2022-09-29T13:09:10.074Z,99548.72
2022-09-29T13:11:57.102Z,99548.81
2022-09-29T13:14:56.446Z,99556.63
2022-09-29T13:17:48.435Z,99552.34
2022-09-29T13:20:32.590Z,99551.78
2022-09-29T13:23:31.603Z,99552.94
2022-09-29T13:26:32.973Z,99554.94
2022-09-29T13:29:06.065Z,99554.22
2022-09-29T13:34:23.949Z,99547.59
2022-09-29T13:36:53.502Z,99555.03
2022-09-29T13:39:26.987Z,99558.56
2022-09-29T13:41:57.061Z,99555.97
2022-09-29T13:44:27.939Z,99560.25
2022-09-29T13:47:19.004Z,99570.34
2022-09-29T13:49:48.446Z,99574.06
2022-09-29T13:52:32.914Z,99567.97
2022-09-29T13:55:50.458Z,99572.44
2022-09-29T13:58:25.076Z,99566.81
2022-09-29T14:00:54.898Z,99569.97
2022-09-29T14:03:28.986Z,99572.03
2022-09-29T14:06:29.282Z,99579.66
2022-09-29T14:09:04.855Z,99572.03
2022-09-29T14:11:37.456Z,99574.63
2022-09-29T14:14:10.271Z,99573.66
2022-09-29T14:16:55.117Z,99570.69
2022-09-29T14:19:53.054Z,99567.47
2022-09-29T14:23:00.311Z,99564.81
2022-09-29T14:25:56.503Z,99570.38
2022-09-29T14:28:41.988Z,99564.63
2022-09-29T14:31:23.948Z,99560.09
2022-09-29T14:33:54.332Z,99564.53
2022-09-29T14:36:27.899Z,99567.06
2022-09-29T14:39:24.627Z,99567.00
2022-09-29T14:41:49.191Z,99555.78
2022-09-29T14:44:24.207Z,99562.16
2022-09-29T14:47:36.456Z,99579.16
2022-09-29T14:50:47.638Z,99575.47
2022-09-29T14:53:58.317Z,99572.47
2022-09-29T14:56:44.521Z,99580.88
2022-09-29T14:59:27.204Z,99582.91
2022-09-29T15:02:16.330Z,99586.75
2022-09-29T15:04:45.648Z,99584.66
2022-09-29T15:07:17.004Z,99592.63
2022-09-29T15:09:50.910Z,99590.88
2022-09-29T15:12:23.888Z,99581.59
2022-09-29T15:14:52.807Z,99559.47
2022-09-29T15:17:41.917Z,99577.28
2022-09-29T15:20:19.130Z,99572.94
2022-09-29T15:23:14.247Z,99579.75
2022-09-29T15:25:45.756Z,99584.34
2022-09-29T15:28:19.289Z,99584.63
2022-09-29T15:30:52.238Z,99585.09
2022-09-29T15:33:24.549Z,99582.13
2022-09-29T15:35:58.267Z,99581.69
2022-09-29T15:38:34.570Z,99584.88
2022-09-29T15:41:14.615Z,99586.66
2022-09-29T15:43:53.953Z,99592.19
2022-09-29T15:46:24.948Z,99594.31
2022-09-29T15:49:15.727Z,99601.97
2022-09-29T15:51:47.352Z,99596.13
2022-09-29T15:54:16.922Z,99602.63
2022-09-29T15:57:06.291Z,99603.75
2022-09-29T15:59:44.170Z,99608.41
2022-09-29T16:02:31.455Z,99621.88
2022-09-29T16:05:04.607Z,99626.84
2022-09-29T16:07:36.559Z,99629.72
2022-09-29T16:10:12.887Z,99631.56
2022-09-29T16:12:49.697Z,99635.38
2022-09-29T16:15:25.625Z,99636.59
2022-09-29T16:17:55.127Z,99640.09
2022-09-29T16:20:28.639Z,99633.84
2022-09-29T16:22:58.194Z,99644.44
2022-09-29T16:25:28.938Z,99641.06
2022-09-29T16:28:00.332Z,99644.88
2022-09-29T16:30:31.913Z,99658.31
2022-09-29T16:33:16.044Z,99659.41
2022-09-29T16:35:51.913Z,99662.56
2022-09-29T16:38:35.698Z,99671.22
2022-09-29T16:41:19.229Z,99677.34
2022-09-29T16:43:51.039Z,99672.06
2022-09-29T16:46:22.980Z,99666.53
2022-09-29T16:48:52.163Z,99628.09
2022-09-29T16:51:39.541Z,99668.34
2022-09-29T16:54:14.823Z,99672.34
2022-09-29T16:56:45.434Z,99675.41
2022-09-29T16:59:17.392Z,99674.91
2022-09-29T17:01:47.368Z,99680.50
2022-09-29T17:04:16.438Z,99689.56
2022-09-29T17:06:49.045Z,99663.88
2022-09-29T17:09:21.374Z,99698.66
2022-09-29T17:11:50.405Z,99702.25
2022-09-29T17:14:21.765Z,99693.53
2022-09-29T17:16:52.228Z,99704.13
2022-09-29T17:19:22.548Z,99699.78
2022-09-29T17:21:59.756Z,99705.19
2022-09-29T17:24:30.397Z,99709.78
2022-09-29T17:27:17.010Z,99708.28
2022-09-29T17:29:47.515Z,99715.59
2022-09-29T17:32:17.726Z,99725.47
2022-09-29T17:34:47.297Z,99722.94
2022-09-29T17:37:19.671Z,99729.19
2022-09-29T17:39:51.671Z,99734.53
2022-09-29T17:42:21.030Z,99731.84
2022-09-29T17:44:51.078Z,99736.28
2022-09-29T17:47:29.109Z,99739.06
2022-09-29T17:50:11.393Z,99739.13
2022-09-29T17:52:50.361Z,99738.34
2022-09-29T17:55:32.093Z,99731.31
2022-09-29T17:58:07.144Z,99734.97
2022-09-29T18:00:40.398Z,99733.34
2022-09-29T18:03:14.640Z,99653.97
2022-09-29T18:05:47.353Z,99733.44
2022-09-29T18:08:18.145Z,99736.13
2022-09-29T18:10:55.253Z,99728.31
2022-09-29T18:13:27.455Z,99690.31
2022-09-29T18:15:59.190Z,99731.91
2022-09-29T18:18:28.155Z,99724.94
2022-09-29T18:20:57.065Z,99727.66
2022-09-29T18:23:26.061Z,99730.41
2022-09-29T18:25:55.875Z,99727.03
2022-09-29T18:28:24.812Z,99720.09
2022-09-29T18:31:11.585Z,99586.13
2022-09-29T18:33:41.643Z,99717.53
2022-09-29T18:36:12.833Z,99718.00
2022-09-29T18:38:41.685Z,99718.75
2022-09-29T18:41:18.452Z,99720.47
2022-09-29T18:43:48.555Z,99725.75
2022-09-29T18:46:21.673Z,99731.00
2022-09-29T18:48:50.969Z,99735.50
2022-09-29T18:51:21.375Z,99735.72
2022-09-29T18:53:50.978Z,99741.25
2022-09-29T18:56:19.685Z,99739.78
2022-09-29T18:58:54.041Z,99744.47
2022-09-29T19:01:27.694Z,99738.53
2022-09-29T19:03:57.366Z,99749.19
2022-09-29T19:06:26.314Z,99746.69
2022-09-29T19:09:02.512Z,99745.91
2022-09-29T19:11:31.604Z,99751.25
2022-09-29T19:14:03.680Z,99756.63
2022-09-29T19:16:35.946Z,99755.84
2022-09-29T19:19:07.631Z,99766.53
2022-09-29T19:21:36.350Z,99762.28
2022-09-29T19:24:05.159Z,99767.63
2022-09-29T19:26:33.822Z,99772.13
2022-09-29T19:29:02.606Z,99781.81
2022-09-29T19:31:33.868Z,99776.63
2022-09-29T19:34:05.158Z,99778.47
2022-09-29T19:36:34.081Z,99772.34
2022-09-29T19:39:04.402Z,99781.19
2022-09-29T19:41:33.208Z,99782.97
2022-09-29T19:44:02.012Z,99784.75
2022-09-29T19:46:32.126Z,99788.38
2022-09-29T19:49:00.968Z,99788.41
2022-09-29T19:51:47.661Z,99782.38
2022-09-29T19:54:19.361Z,99786.75
2022-09-29T19:56:50.877Z,99787.69
2022-09-29T19:59:22.305Z,99783.31
2022-09-29T20:01:53.301Z,99789.44
2022-09-29T20:04:29.494Z,99785.13
2022-09-29T20:06:59.746Z,99794.81
2022-09-29T20:09:31.388Z,99795.69
2022-09-29T20:12:00.678Z,99793.94
2022-09-29T20:14:32.204Z,99793.94
2022-09-29T20:17:02.436Z,99787.88
2022-09-29T20:19:31.563Z,99799.22
2022-09-29T20:22:00.238Z,99806.25
2022-09-29T20:24:29.295Z,99801.91
2022-09-29T20:26:58.152Z,99812.41
2022-09-29T20:29:27.317Z,99814.16
2022-09-29T20:31:56.182Z,99821.25
2022-09-29T20:34:26.267Z,99820.38
2022-09-29T20:36:55.463Z,99826.53
2022-09-29T20:39:25.890Z,99828.28
2022-09-29T20:41:55.452Z,99830.06
2022-09-29T20:44:26.866Z,99845.81
2022-09-29T20:46:56.707Z,99838.78
2022-09-29T20:49:28.748Z,99844.97
